Time;durP1;ratioP1;P1;durP2;ratioP2;P2;SDS_P1;SDS_P2;PMS_P1;PMS_P2;Temp;Humidity;BMP_temperature;BMP_pressure;BME280_temperature;BME280_humidity;BME280_pressure;Samples;Min_cycle;Max_cycle;Signal;HPM_P1;HPM_P2
2023/02/17 00:01:30;;;;;;;1.42;1.33;;;;;;;;;;4495370;28;20039;-55
2023/02/17 00:03:41;;;;;;;1.30;1.20;;;;;;;;;;4493459;28;20845;-55
2023/02/17 00:05:52;;;;;;;1.25;1.15;;;;;;;;;;4495177;28;20134;-55
2023/02/17 00:08:02;;;;;;;1.70;1.60;;;;;;;;;;4492937;28;20494;-55
2023/02/17 00:10:12;;;;;;;1.48;1.38;;;;;;;;;;4493480;28;20477;-55
2023/02/17 00:12:22;;;;;;;1.50;1.40;;;;;;;;;;4493668;28;20160;-56
2023/02/17 00:14:33;;;;;;;1.50;1.40;;;;;;;;;;4501844;28;20042;-55
2023/02/17 00:16:43;;;;;;;1.50;1.40;;;;;;;;;;4493711;28;20058;-55
2023/02/17 00:18:55;;;;;;;1.30;1.20;;;;;;;;;;4493864;28;20085;-55
2023/02/17 00:21:13;;;;;;;1.58;1.48;;;;;;;;;;4493825;28;20026;-55
2023/02/17 00:23:23;;;;;;;1.40;1.30;;;;;;;;;;4494286;28;20053;-55
2023/02/17 00:25:33;;;;;;;1.42;1.33;;;;;;;;;;4493115;28;20806;-55
2023/02/17 00:27:44;;;;;;;1.63;1.52;;;;;;;;;;4493006;28;20097;-55
2023/02/17 00:29:54;;;;;;;1.40;1.30;;;;;;;;;;4502540;28;20052;-55
2023/02/17 00:32:04;;;;;;;1.60;1.50;;;;;;;;;;4497256;28;20292;-55
2023/02/17 00:34:15;;;;;;;1.40;1.30;;;;;;;;;;4496542;28;20042;-55
2023/02/17 00:36:26;;;;;;;1.48;1.38;;;;;;;;;;4494246;28;20619;-55
2023/02/17 00:38:36;;;;;;;1.50;1.40;;;;;;;;;;4494071;28;20184;-55
2023/02/17 00:40:47;;;;;;;1.52;1.42;;;;;;;;;;4497318;28;20352;-56
2023/02/17 00:42:57;;;;;;;1.40;1.30;;;;;;;;;;4495716;28;20037;-56
2023/02/17 00:45:08;;;;;;;1.40;1.30;;;;;;;;;;4492931;28;20087;-56
2023/02/17 00:47:19;;;;;;;1.17;1.10;;;;;;;;;;4492901;28;20052;-55
2023/02/17 00:49:30;;;;;;;1.40;1.30;;;;;;;;;;4495186;28;20053;-56
2023/02/17 00:51:41;;;;;;;1.50;1.40;;;;;;;;;;4495645;28;20040;-56
2023/02/17 00:53:51;;;;;;;1.58;1.48;;;;;;;;;;4492055;28;20045;-56
2023/02/17 00:56:02;;;;;;;1.60;1.50;;;;;;;;;;4497637;28;20038;-56
2023/02/17 00:58:12;;;;;;;1.50;1.40;;;;;;;;;;4494553;28;20050;-56
2023/02/17 01:00:22;;;;;;;1.50;1.40;;;;;;;;;;4495565;28;20129;-55
2023/02/17 01:02:33;;;;;;;1.50;1.40;;;;;;;;;;4494262;28;20058;-56
2023/02/17 01:04:43;;;;;;;1.42;1.33;;;;;;;;;;4494331;28;20033;-56
2023/02/17 01:06:53;;;;;;;1.80;1.70;;;;;;;;;;4498328;28;20044;-56
2023/02/17 01:09:05;;;;;;;1.52;1.42;;;;;;;;;;4496575;28;20505;-56
2023/02/17 01:11:19;;;;;;;1.60;1.50;;;;;;;;;;4492226;28;20153;-56
2023/02/17 01:13:29;;;;;;;1.60;1.50;;;;;;;;;;4480052;28;20038;-56
2023/02/17 01:15:40;;;;;;;1.70;1.60;;;;;;;;;;4494453;28;20046;-56
2023/02/17 01:17:51;;;;;;;1.60;1.50;;;;;;;;;;4493551;28;20045;-56
2023/02/17 01:20:05;;;;;;;1.85;1.75;;;;;;;;;;4500901;28;20048;-56
2023/02/17 01:22:15;;;;;;;1.65;1.55;;;;;;;;;;4492393;28;20046;-56
2023/02/17 01:24:25;;;;;;;1.80;1.70;;;;;;;;;;4496725;28;20034;-56
2023/02/17 01:26:37;;;;;;;1.85;1.67;;;;;;;;;;4494178;28;20038;-56
2023/02/17 01:28:48;;;;;;;1.77;1.67;;;;;;;;;;4492294;28;20042;-56
2023/02/17 01:31:03;;;;;;;1.80;1.70;;;;;;;;;;4502723;28;20065;-56
2023/02/17 01:33:14;;;;;;;1.95;1.83;;;;;;;;;;4501119;28;20572;-56
2023/02/17 01:35:24;;;;;;;1.83;1.73;;;;;;;;;;4494233;28;20144;-55
2023/02/17 01:37:35;;;;;;;2.00;1.90;;;;;;;;;;4498710;28;20608;-56
2023/02/17 01:39:45;;;;;;;2.75;1.70;;;;;;;;;;4492555;28;20042;-56
2023/02/17 01:41:55;;;;;;;1.85;1.75;;;;;;;;;;4493331;28;20479;-56
2023/02/17 01:44:13;;;;;;;2.00;1.90;;;;;;;;;;4494177;28;20037;-56
2023/02/17 01:46:24;;;;;;;2.38;2.17;;;;;;;;;;4492968;28;20034;-57
2023/02/17 01:48:40;;;;;;;2.33;2.13;;;;;;;;;;4485290;28;20919;-57
2023/02/17 01:50:50;;;;;;;2.20;2.00;;;;;;;;;;4493240;28;20108;-56
2023/02/17 01:53:01;;;;;;;2.40;2.20;;;;;;;;;;4495201;28;20116;-56
2023/02/17 01:55:14;;;;;;;2.30;2.10;;;;;;;;;;4492050;28;20042;-57
2023/02/17 01:57:26;;;;;;;2.25;2.10;;;;;;;;;;4492947;28;20095;-56
2023/02/17 01:59:36;;;;;;;2.20;2.00;;;;;;;;;;4490233;28;20034;-56
2023/02/17 02:01:49;;;;;;;2.40;2.20;;;;;;;;;;4507920;28;20624;-56
2023/02/17 02:04:01;;;;;;;2.30;2.10;;;;;;;;;;4478405;28;20605;-55
2023/02/17 02:06:14;;;;;;;2.50;2.30;;;;;;;;;;4492728;28;20750;-56
2023/02/17 02:08:26;;;;;;;2.35;2.15;;;;;;;;;;4507482;28;21321;-57
2023/02/17 02:10:38;;;;;;;2.38;2.17;;;;;;;;;;4493413;28;20049;-55
2023/02/17 02:12:49;;;;;;;2.60;2.40;;;;;;;;;;4496764;28;20430;-56
2023/02/17 02:15:05;;;;;;;2.30;2.10;;;;;;;;;;4493272;28;20038;-56
2023/02/17 02:17:30;;;;;;;2.25;2.05;;;;;;;;;;4493856;28;20040;-56
2023/02/17 02:19:42;;;;;;;2.35;2.15;;;;;;;;;;4492917;28;20092;-56
2023/02/17 02:21:59;;;;;;;2.40;2.20;;;;;;;;;;4493173;28;20030;-55
2023/02/17 02:24:27;;;;;;;2.70;2.50;;;;;;;;;;4508175;28;20048;-55
2023/02/17 02:26:52;;;;;;;2.63;2.40;;;;;;;;;;4500293;28;20107;-56
2023/02/17 02:29:25;;;;;;;2.50;2.30;;;;;;;;;;4494112;28;20657;-56
2023/02/17 02:31:36;;;;;;;2.45;2.25;;;;;;;;;;4503241;28;20045;-56
2023/02/17 02:33:50;;;;;;;2.47;2.28;;;;;;;;;;4502121;28;20527;-56
2023/02/17 02:36:06;;;;;;;1.90;1.80;;;;;;;;;;4491736;28;20034;-55
2023/02/17 02:38:23;;;;;;;2.50;2.30;;;;;;;;;;4492018;28;20046;-56
2023/02/17 02:40:35;;;;;;;2.30;2.10;;;;;;;;;;4494290;28;20088;-55
2023/02/17 02:42:46;;;;;;;2.30;2.10;;;;;;;;;;4501129;28;20048;-56
2023/02/17 02:44:56;;;;;;;2.13;2.00;;;;;;;;;;4493629;28;20056;-56
2023/02/17 02:47:26;;;;;;;2.22;2.03;;;;;;;;;;4492935;28;20054;-56
2023/02/17 02:49:36;;;;;;;2.25;2.05;;;;;;;;;;4485728;28;20038;-56
2023/02/17 02:52:06;;;;;;;2.08;1.98;;;;;;;;;;4494857;28;20035;-56
2023/02/17 02:54:21;;;;;;;2.63;2.28;;;;;;;;;;4492489;28;20085;-55
2023/02/17 02:56:50;;;;;;;2.30;2.10;;;;;;;;;;4490577;28;20542;-56
2023/02/17 02:59:01;;;;;;;2.05;1.85;;;;;;;;;;4507303;28;20081;-55
2023/02/17 03:01:23;;;;;;;2.40;2.20;;;;;;;;;;4497653;28;20113;-55
2023/02/17 03:03:43;;;;;;;2.00;1.80;;;;;;;;;;4481800;28;20046;-56
2023/02/17 03:06:06;;;;;;;2.25;2.05;;;;;;;;;;4502168;28;20038;-55
2023/02/17 03:08:19;;;;;;;1.80;1.70;;;;;;;;;;4498454;28;20553;-57
2023/02/17 03:10:29;;;;;;;1.75;1.63;;;;;;;;;;4492394;28;20104;-57
2023/02/17 03:12:40;;;;;;;1.75;1.65;;;;;;;;;;4506525;28;20548;-56
2023/02/17 03:14:57;;;;;;;1.70;1.60;;;;;;;;;;4491166;28;20043;-56
2023/02/17 03:17:07;;;;;;;;;;;;;;;;;;4502953;28;20832;-54
2023/02/17 03:19:20;;;;;;;2.08;1.88;;;;;;;;;;4492208;28;19932;-55
2023/02/17 03:21:45;;;;;;;1.80;1.70;;;;;;;;;;4501049;28;20055;-55
2023/02/17 03:23:56;;;;;;;1.73;1.63;;;;;;;;;;4494603;28;20848;-55
2023/02/17 03:26:06;;;;;;;1.77;1.67;;;;;;;;;;4481392;28;20054;-55
2023/02/17 03:28:17;;;;;;;2.10;1.90;;;;;;;;;;4490824;28;20042;-55
2023/02/17 03:30:28;;;;;;;1.70;1.60;;;;;;;;;;4500058;28;20406;-55
2023/02/17 03:32:39;;;;;;;1.98;1.80;;;;;;;;;;4492456;28;20046;-55
2023/02/17 03:34:49;;;;;;;2.25;1.90;;;;;;;;;;4490715;28;20631;-55
2023/02/17 03:36:59;;;;;;;1.90;1.80;;;;;;;;;;4491166;28;20038;-54
2023/02/17 03:39:10;;;;;;;1.70;1.60;;;;;;;;;;4490275;28;20045;-53
2023/02/17 03:41:20;;;;;;;2.03;1.83;;;;;;;;;;4489759;28;20390;-55
2023/02/17 03:43:30;;;;;;;1.75;1.65;;;;;;;;;;4490523;28;20062;-55
2023/02/17 03:45:41;;;;;;;1.63;1.52;;;;;;;;;;4491023;28;20030;-55
2023/02/17 03:47:51;;;;;;;1.92;1.80;;;;;;;;;;4491071;28;20038;-55
2023/02/17 03:50:01;;;;;;;1.80;1.70;;;;;;;;;;4491205;28;20129;-54
2023/02/17 03:52:11;;;;;;;1.90;1.80;;;;;;;;;;4493556;28;20087;-55
2023/02/17 03:54:22;;;;;;;2.13;1.92;;;;;;;;;;4490888;28;20224;-54
2023/02/17 03:56:32;;;;;;;1.80;1.70;;;;;;;;;;4491232;28;20073;-55
2023/02/17 03:58:43;;;;;;;1.70;1.60;;;;;;;;;;4489409;28;20061;-54
2023/02/17 04:00:53;;;;;;;1.75;1.65;;;;;;;;;;4476205;28;20054;-55
2023/02/17 04:03:03;;;;;;;1.90;1.80;;;;;;;;;;4491155;28;20045;-55
2023/02/17 04:05:13;;;;;;;1.90;1.80;;;;;;;;;;4492316;28;20033;-55
2023/02/17 04:07:24;;;;;;;2.03;1.92;;;;;;;;;;4490505;28;20100;-55
2023/02/17 04:09:34;;;;;;;1.90;1.80;;;;;;;;;;4493399;28;20045;-55
2023/02/17 04:11:45;;;;;;;2.25;2.05;;;;;;;;;;4492039;28;20046;-55
2023/02/17 04:13:55;;;;;;;1.95;1.83;;;;;;;;;;4492089;28;20114;-54
2023/02/17 04:16:06;;;;;;;2.15;1.95;;;;;;;;;;4490596;28;20034;-55
2023/02/17 04:18:17;;;;;;;2.05;1.95;;;;;;;;;;4490509;28;20153;-55
2023/02/17 04:20:27;;;;;;;1.75;1.65;;;;;;;;;;4494623;28;20048;-55
2023/02/17 04:22:37;;;;;;;1.98;1.80;;;;;;;;;;4494559;28;20092;-55
2023/02/17 04:24:48;;;;;;;2.20;2.00;;;;;;;;;;4494312;28;20034;-55
2023/02/17 04:26:58;;;;;;;2.20;2.00;;;;;;;;;;4498445;28;20076;-55
2023/02/17 04:29:09;;;;;;;1.95;1.85;;;;;;;;;;4494087;28;20045;-55
2023/02/17 04:31:19;;;;;;;2.10;1.90;;;;;;;;;;4495194;28;20037;-55
2023/02/17 04:33:29;;;;;;;2.05;1.95;;;;;;;;;;4497539;28;20021;-55
2023/02/17 04:35:40;;;;;;;2.22;2.03;;;;;;;;;;4502342;28;20045;-55
2023/02/17 04:37:50;;;;;;;1.98;1.83;;;;;;;;;;4503193;28;20510;-55
2023/02/17 04:40:00;;;;;;;1.83;1.70;;;;;;;;;;4493782;28;20042;-55
2023/02/17 04:42:11;;;;;;;1.80;1.70;;;;;;;;;;4495417;28;20042;-56
2023/02/17 04:44:21;;;;;;;1.90;1.80;;;;;;;;;;4499983;28;20064;-55
2023/02/17 04:46:31;;;;;;;2.10;1.90;;;;;;;;;;4493351;28;20510;-55
2023/02/17 04:48:42;;;;;;;2.10;1.90;;;;;;;;;;4494658;28;20495;-52
2023/02/17 04:50:52;;;;;;;1.88;1.77;;;;;;;;;;4493342;28;20549;-55
2023/02/17 04:53:02;;;;;;;2.08;1.98;;;;;;;;;;4494250;28;20517;-55
2023/02/17 04:55:12;;;;;;;2.00;1.80;;;;;;;;;;4492637;28;20097;-58
2023/02/17 04:57:23;;;;;;;1.73;1.63;;;;;;;;;;4493462;28;20048;-55
2023/02/17 04:59:33;;;;;;;1.77;1.67;;;;;;;;;;4495912;28;20073;-55
2023/02/17 05:01:43;;;;;;;1.67;1.58;;;;;;;;;;4493559;28;20618;-55
2023/02/17 05:03:54;;;;;;;1.77;1.67;;;;;;;;;;4494193;28;20077;-55
2023/02/17 05:06:04;;;;;;;1.88;1.70;;;;;;;;;;4494499;28;20793;-56
2023/02/17 05:08:14;;;;;;;2.03;1.83;;;;;;;;;;4494001;28;20084;-55
2023/02/17 05:10:25;;;;;;;1.73;1.63;;;;;;;;;;4497337;28;20549;-55
2023/02/17 05:12:35;;;;;;;1.60;1.50;;;;;;;;;;4496717;28;20054;-55
2023/02/17 05:14:45;;;;;;;1.80;1.70;;;;;;;;;;4493516;28;20058;-55
2023/02/17 05:16:56;;;;;;;1.70;1.60;;;;;;;;;;4494580;28;20034;-55
2023/02/17 05:19:06;;;;;;;1.90;1.70;;;;;;;;;;4495208;28;20042;-56
2023/02/17 05:21:16;;;;;;;1.77;1.67;;;;;;;;;;4493686;28;20045;-55
2023/02/17 05:23:27;;;;;;;1.70;1.60;;;;;;;;;;4491766;28;20046;-52
2023/02/17 05:25:39;;;;;;;1.80;1.70;;;;;;;;;;4492514;28;20041;-55
2023/02/17 05:27:49;;;;;;;1.50;1.40;;;;;;;;;;4492897;28;20038;-56
2023/02/17 05:30:00;;;;;;;1.80;1.70;;;;;;;;;;4493381;28;20066;-55
2023/02/17 05:32:10;;;;;;;1.50;1.40;;;;;;;;;;4492577;28;20487;-55
2023/02/17 05:34:20;;;;;;;1.50;1.40;;;;;;;;;;4494698;28;20038;-55
2023/02/17 05:36:31;;;;;;;1.70;1.60;;;;;;;;;;4490542;28;20037;-55
2023/02/17 05:38:41;;;;;;;1.50;1.40;;;;;;;;;;4493378;28;20112;-55
2023/02/17 05:40:51;;;;;;;2.10;1.90;;;;;;;;;;4492730;28;20067;-55
2023/02/17 05:43:01;;;;;;;1.75;1.65;;;;;;;;;;4493246;28;20113;-55
2023/02/17 05:45:12;;;;;;;1.52;1.42;;;;;;;;;;4492993;28;20403;-55
2023/02/17 05:47:22;;;;;;;1.63;1.52;;;;;;;;;;4492981;28;20057;-55
2023/02/17 05:49:33;;;;;;;1.70;1.60;;;;;;;;;;4492683;28;20481;-55
2023/02/17 05:51:43;;;;;;;1.65;1.55;;;;;;;;;;4492573;28;20065;-55
2023/02/17 05:53:53;;;;;;;1.83;1.67;;;;;;;;;;4492655;28;20116;-56
2023/02/17 05:56:04;;;;;;;1.40;1.30;;;;;;;;;;4494395;28;20037;-55
2023/02/17 05:58:14;;;;;;;1.70;1.60;;;;;;;;;;4492940;28;20045;-53
2023/02/17 06:00:25;;;;;;;1.60;1.50;;;;;;;;;;4493622;28;20061;-57
2023/02/17 06:02:35;;;;;;;1.80;1.70;;;;;;;;;;4492252;28;20046;-55
2023/02/17 06:04:45;;;;;;;1.92;1.73;;;;;;;;;;4494180;28;20043;-55
2023/02/17 06:06:55;;;;;;;1.70;1.60;;;;;;;;;;4499067;28;20038;-56
2023/02/17 06:09:06;;;;;;;1.67;1.58;;;;;;;;;;4493765;28;20132;-56
2023/02/17 06:11:16;;;;;;;1.65;1.55;;;;;;;;;;4492857;28;20066;-56
2023/02/17 06:13:26;;;;;;;1.92;1.77;;;;;;;;;;4492728;28;20031;-56
2023/02/17 06:15:37;;;;;;;1.80;1.70;;;;;;;;;;4493242;28;20038;-56
2023/02/17 06:17:47;;;;;;;1.60;1.50;;;;;;;;;;4493688;28;20518;-56
2023/02/17 06:19:57;;;;;;;1.85;1.70;;;;;;;;;;4493725;28;20038;-55
2023/02/17 06:22:08;;;;;;;1.70;1.60;;;;;;;;;;4495743;28;20033;-56
2023/02/17 06:24:18;;;;;;;1.73;1.63;;;;;;;;;;4492318;28;20037;-56
2023/02/17 06:26:28;;;;;;;1.80;1.70;;;;;;;;;;4494262;28;20483;-56
2023/02/17 06:28:38;;;;;;;2.03;1.90;;;;;;;;;;4491146;28;20517;-57
2023/02/17 06:30:49;;;;;;;1.90;1.80;;;;;;;;;;4492177;28;20033;-55
2023/02/17 06:32:59;;;;;;;1.90;1.80;;;;;;;;;;4500466;28;20446;-54
2023/02/17 06:35:09;;;;;;;1.90;1.80;;;;;;;;;;4496142;28;20041;-55
2023/02/17 06:37:20;;;;;;;1.70;1.60;;;;;;;;;;4491867;28;20038;-55
2023/02/17 06:39:30;;;;;;;2.00;1.80;;;;;;;;;;4490142;28;20046;-55
2023/02/17 06:41:41;;;;;;;1.98;1.80;;;;;;;;;;4492979;28;20557;-58
2023/02/17 06:43:51;;;;;;;2.00;1.90;;;;;;;;;;4490480;28;20052;-59
2023/02/17 06:46:02;;;;;;;1.77;1.67;;;;;;;;;;4490571;28;20045;-57
2023/02/17 06:48:12;;;;;;;2.05;1.90;;;;;;;;;;4491064;28;20498;-55
2023/02/17 06:50:22;;;;;;;1.80;1.70;;;;;;;;;;4491205;28;20022;-57
2023/02/17 06:52:33;;;;;;;2.00;1.80;;;;;;;;;;4492900;28;20054;-57
2023/02/17 06:54:46;;;;;;;1.75;1.65;;;;;;;;;;4507433;28;20132;-57
2023/02/17 06:56:56;;;;;;;1.85;1.75;;;;;;;;;;4491007;28;20069;-57
2023/02/17 06:59:06;;;;;;;2.10;1.90;;;;;;;;;;4490000;28;20140;-57
2023/02/17 07:01:19;;;;;;;2.10;1.85;;;;;;;;;;4491575;28;20045;-57
2023/02/17 07:03:30;;;;;;;1.92;1.70;;;;;;;;;;4489760;28;20038;-56
2023/02/17 07:05:40;;;;;;;2.10;1.90;;;;;;;;;;4492249;28;20034;-56
2023/02/17 07:07:52;;;;;;;3.15;1.80;;;;;;;;;;4491249;28;20042;-56
2023/02/17 07:10:02;;;;;;;2.13;1.90;;;;;;;;;;4491635;28;20064;-56
2023/02/17 07:12:13;;;;;;;2.55;2.35;;;;;;;;;;4491738;28;20941;-57
2023/02/17 07:14:23;;;;;;;2.75;2.35;;;;;;;;;;4490744;28;20041;-56
2023/02/17 07:16:34;;;;;;;2.05;1.85;;;;;;;;;;4491129;28;20422;-56
2023/02/17 07:18:44;;;;;;;1.70;1.60;;;;;;;;;;4490454;28;20100;-56
2023/02/17 07:20:54;;;;;;;2.03;1.90;;;;;;;;;;4489680;28;20101;-56
2023/02/17 07:23:05;;;;;;;2.00;1.90;;;;;;;;;;4490920;28;20100;-57
2023/02/17 07:25:15;;;;;;;1.90;1.73;;;;;;;;;;4489294;28;20041;-56
2023/02/17 07:27:26;;;;;;;1.88;1.70;;;;;;;;;;4489377;28;20628;-56
2023/02/17 07:29:36;;;;;;;1.83;1.70;;;;;;;;;;4490216;28;20042;-56
2023/02/17 07:31:47;;;;;;;1.75;1.65;;;;;;;;;;4489232;28;20046;-59
2023/02/17 07:33:57;;;;;;;1.77;1.67;;;;;;;;;;4489856;28;20372;-57
2023/02/17 07:36:08;;;;;;;1.88;1.77;;;;;;;;;;4490619;28;20038;-56
2023/02/17 07:38:19;;;;;;;1.70;1.60;;;;;;;;;;4490964;28;20557;-56
2023/02/17 07:40:29;;;;;;;2.28;1.98;;;;;;;;;;4490540;28;20042;-57
2023/02/17 07:42:39;;;;;;;1.83;1.73;;;;;;;;;;4491121;28;20038;-56
2023/02/17 07:44:50;;;;;;;1.90;1.80;;;;;;;;;;4491733;28;20053;-57
2023/02/17 07:47:00;;;;;;;1.77;1.67;;;;;;;;;;4506882;28;20088;-57
2023/02/17 07:49:11;;;;;;;1.90;1.80;;;;;;;;;;4490304;28;20081;-56
2023/02/17 07:51:21;;;;;;;1.92;1.75;;;;;;;;;;4489493;28;20038;-57
2023/02/17 07:53:32;;;;;;;1.90;1.80;;;;;;;;;;4493215;28;20505;-56
2023/02/17 07:55:42;;;;;;;1.95;1.85;;;;;;;;;;4485172;28;20044;-54
2023/02/17 07:57:52;;;;;;;1.70;1.60;;;;;;;;;;4493760;28;20030;-56
2023/02/17 08:00:04;;;;;;;2.22;2.03;;;;;;;;;;4492527;28;20463;-56
2023/02/17 08:02:23;;;;;;;1.80;1.70;;;;;;;;;;4490474;28;20051;-55
2023/02/17 08:04:33;;;;;;;1.73;1.63;;;;;;;;;;4493323;28;20096;-58
2023/02/17 08:06:43;;;;;;;2.10;2.00;;;;;;;;;;4493657;28;20030;-58
2023/02/17 08:13:52;;;;;;;2.05;1.77;;;;;;;;;;4493400;28;20085;-55
2023/02/17 08:16:02;;;;;;;1.90;1.80;;;;;;;;;;4493658;28;20064;-56
2023/02/17 08:18:12;;;;;;;2.67;2.00;;;;;;;;;;4500363;28;20049;-57
2023/02/17 08:20:23;;;;;;;2.10;1.92;;;;;;;;;;4492662;28;20030;-61
2023/02/17 08:22:33;;;;;;;1.73;1.63;;;;;;;;;;4493139;28;20502;-55
2023/02/17 08:24:44;;;;;;;2.10;1.83;;;;;;;;;;4491874;28;20042;-56
2023/02/17 08:26:54;;;;;;;2.22;2.03;;;;;;;;;;4497198;28;20048;-56
2023/02/17 08:29:04;;;;;;;1.77;1.67;;;;;;;;;;4493837;28;20026;-56
2023/02/17 08:31:19;;;;;;;1.90;1.70;;;;;;;;;;4492668;28;20057;-55
2023/02/17 08:33:29;;;;;;;2.00;1.90;;;;;;;;;;4491728;28;20271;-55
2023/02/17 08:35:40;;;;;;;1.95;1.85;;;;;;;;;;4490774;28;20100;-55
2023/02/17 08:37:50;;;;;;;1.83;1.73;;;;;;;;;;4491767;28;20030;-55
2023/02/17 08:40:01;;;;;;;1.77;1.67;;;;;;;;;;4491869;28;20430;-55
2023/02/17 08:42:11;;;;;;;1.75;1.65;;;;;;;;;;4492432;28;20030;-54
2023/02/17 08:44:21;;;;;;;1.70;1.60;;;;;;;;;;4491454;28;20600;-55
2023/02/17 08:46:33;;;;;;;1.60;1.50;;;;;;;;;;4494952;28;20092;-55
2023/02/17 08:48:44;;;;;;;1.42;1.33;;;;;;;;;;4500953;28;20026;-54
2023/02/17 08:50:54;;;;;;;1.63;1.52;;;;;;;;;;4493181;28;20038;-58
2023/02/17 08:53:04;;;;;;;1.50;1.40;;;;;;;;;;4492288;28;20588;-57
2023/02/17 08:55:17;;;;;;;1.55;1.42;;;;;;;;;;4492500;28;20422;-57
2023/02/17 08:57:28;;;;;;;1.50;1.40;;;;;;;;;;4492942;28;20038;-57
2023/02/17 08:59:38;;;;;;;1.40;1.30;;;;;;;;;;4491637;28;20585;-56
2023/02/17 09:01:49;;;;;;;1.38;1.27;;;;;;;;;;4494194;28;20026;-56
2023/02/17 09:04:00;;;;;;;1.65;1.55;;;;;;;;;;4491581;28;20042;-56
2023/02/17 09:06:10;;;;;;;1.40;1.30;;;;;;;;;;4489303;28;20045;-56
2023/02/17 09:08:22;;;;;;;1.35;1.25;;;;;;;;;;4491250;28;20081;-57
2023/02/17 09:10:32;;;;;;;1.55;1.45;;;;;;;;;;4493986;28;20041;-56
2023/02/17 09:12:42;;;;;;;1.40;1.30;;;;;;;;;;4494019;28;20041;-56
2023/02/17 09:14:53;;;;;;;1.55;1.45;;;;;;;;;;4491164;28;20065;-57
2023/02/17 09:17:04;;;;;;;1.65;1.55;;;;;;;;;;4491724;28;20125;-56
2023/02/17 09:19:14;;;;;;;1.38;1.27;;;;;;;;;;4490836;28;20065;-56
2023/02/17 09:21:24;;;;;;;1.27;1.17;;;;;;;;;;4491480;28;20044;-57
2023/02/17 09:23:35;;;;;;;1.35;1.25;;;;;;;;;;4492156;28;20035;-57
2023/02/17 09:25:45;;;;;;;1.33;1.23;;;;;;;;;;4493651;28;20066;-57
2023/02/17 09:27:56;;;;;;;1.45;1.35;;;;;;;;;;4499220;28;20046;-56
2023/02/17 09:30:06;;;;;;;1.58;1.48;;;;;;;;;;4493023;28;20030;-57
2023/02/17 09:32:16;;;;;;;1.35;1.25;;;;;;;;;;4494082;28;20129;-56
2023/02/17 09:34:27;;;;;;;1.48;1.38;;;;;;;;;;4491974;28;20554;-57
2023/02/17 09:36:39;;;;;;;1.38;1.27;;;;;;;;;;4492488;28;20097;-57
2023/02/17 09:38:49;;;;;;;1.38;1.27;;;;;;;;;;4488856;28;20845;-58
2023/02/17 09:41:20;;;;;;;1.77;1.40;;;;;;;;;;4490163;28;20073;-56
2023/02/17 09:43:31;;;;;;;1.60;1.50;;;;;;;;;;4491234;28;20056;-56
2023/02/17 09:45:42;;;;;;;1.60;1.50;;;;;;;;;;4492477;28;20376;-55
2023/02/17 09:47:55;;;;;;;1.80;1.60;;;;;;;;;;4491508;28;20049;-55
2023/02/17 09:50:10;;;;;;;1.52;1.42;;;;;;;;;;4492156;28;20586;-55
2023/02/17 09:52:36;;;;;;;1.50;1.40;;;;;;;;;;4491285;28;20117;-55
2023/02/17 09:54:52;;;;;;;1.48;1.38;;;;;;;;;;4492865;28;20064;-56
2023/02/17 09:57:05;;;;;;;2.05;1.60;;;;;;;;;;4491861;28;20605;-56
2023/02/17 09:59:25;;;;;;;1.80;1.70;;;;;;;;;;4492408;28;20050;-57
2023/02/17 10:01:35;;;;;;;1.55;1.45;;;;;;;;;;4476326;28;20039;-57
2023/02/17 10:03:46;;;;;;;2.20;1.63;;;;;;;;;;4491351;28;20538;-56
2023/02/17 10:06:15;;;;;;;1.52;1.42;;;;;;;;;;4490367;28;20133;-54
2023/02/17 10:08:28;;;;;;;1.52;1.40;;;;;;;;;;4490720;28;20088;-56
2023/02/17 10:11:07;;;;;;;1.50;1.40;;;;;;;;;;4501436;28;20612;-55
2023/02/17 10:13:19;;;;;;;1.98;1.60;;;;;;;;;;4484074;28;20050;-55
2023/02/17 10:15:33;;;;;;;1.60;1.50;;;;;;;;;;4493308;28;20778;-56
2023/02/17 10:17:50;;;;;;;1.75;1.60;;;;;;;;;;4493996;28;20049;-55
2023/02/17 10:20:09;;;;;;;1.50;1.38;;;;;;;;;;4492187;28;20060;-55
2023/02/17 10:22:21;;;;;;;1.52;1.42;;;;;;;;;;4492077;28;20198;-55
2023/02/17 10:24:31;;;;;;;1.48;1.38;;;;;;;;;;4490001;28;20041;-55
2023/02/17 10:26:52;;;;;;;1.52;1.42;;;;;;;;;;4491028;28;20038;-55
2023/02/17 10:29:05;;;;;;;1.30;1.20;;;;;;;;;;4489513;28;20532;-55
2023/02/17 10:31:18;;;;;;;1.58;1.48;;;;;;;;;;4492543;28;20192;-56
2023/02/17 10:33:36;;;;;;;1.33;1.23;;;;;;;;;;4490416;28;20038;-56
2023/02/17 10:35:46;;;;;;;1.40;1.30;;;;;;;;;;4491080;28;20149;-56
2023/02/17 10:38:05;;;;;;;1.40;1.30;;;;;;;;;;4491091;28;20487;-55
2023/02/17 10:40:18;;;;;;;1.40;1.30;;;;;;;;;;4491966;28;20048;-56
2023/02/17 10:42:28;;;;;;;1.30;1.20;;;;;;;;;;4490628;28;20042;-56
2023/02/17 10:44:39;;;;;;;1.40;1.30;;;;;;;;;;4492322;28;20034;-55
2023/02/17 10:46:51;;;;;;;1.30;1.20;;;;;;;;;;4499583;28;20150;-56
2023/02/17 10:49:01;;;;;;;1.23;1.13;;;;;;;;;;4491908;28;20042;-56
2023/02/17 10:51:17;;;;;;;1.40;1.30;;;;;;;;;;4492222;28;20759;-57
2023/02/17 10:53:32;;;;;;;1.23;1.13;;;;;;;;;;4490441;28;20038;-56
2023/02/17 10:55:56;;;;;;;1.27;1.20;;;;;;;;;;4490470;28;20042;-56
2023/02/17 10:58:12;;;;;;;1.30;1.20;;;;;;;;;;4490062;28;20037;-56
2023/02/17 11:00:22;;;;;;;1.38;1.27;;;;;;;;;;4491492;28;20181;-56
2023/02/17 11:02:36;;;;;;;1.17;1.08;;;;;;;;;;4499187;28;20068;-56
2023/02/17 11:04:48;;;;;;;1.33;1.23;;;;;;;;;;4491080;28;20038;-56
2023/02/17 11:07:00;;;;;;;1.27;1.17;;;;;;;;;;4492792;28;20038;-56
2023/02/17 11:09:19;;;;;;;1.30;1.20;;;;;;;;;;4492065;28;20061;-56
2023/02/17 11:11:30;;;;;;;1.40;1.30;;;;;;;;;;4490859;28;20038;-57
2023/02/17 11:13:59;;;;;;;1.30;1.20;;;;;;;;;;4489312;28;20138;-58
2023/02/17 11:16:29;;;;;;;1.30;1.20;;;;;;;;;;4489235;28;20123;-57
2023/02/17 11:18:45;;;;;;;1.27;1.17;;;;;;;;;;4489115;28;20046;-56
2023/02/17 11:21:00;;;;;;;1.10;1.00;;;;;;;;;;4489769;28;20616;-57
2023/02/17 11:23:13;;;;;;;1.20;1.10;;;;;;;;;;4500734;28;20092;-57
2023/02/17 11:25:23;;;;;;;1.13;1.10;;;;;;;;;;4489188;28;20197;-56
2023/02/17 11:27:34;;;;;;;1.23;1.13;;;;;;;;;;4490982;28;20041;-56
2023/02/17 11:29:44;;;;;;;1.02;1.00;;;;;;;;;;4489983;28;20041;-55
2023/02/17 11:31:59;;;;;;;1.40;1.30;;;;;;;;;;4494703;28;20066;-56
2023/02/17 11:34:10;;;;;;;1.27;1.17;;;;;;;;;;4495131;28;20263;-57
2023/02/17 11:36:28;;;;;;;1.30;1.20;;;;;;;;;;4491212;28;20681;-57
2023/02/17 11:38:38;;;;;;;1.50;1.30;;;;;;;;;;4491308;28;20050;-56
2023/02/17 11:40:55;;;;;;;1.30;1.20;;;;;;;;;;4492446;28;20853;-57
2023/02/17 11:43:05;;;;;;;1.40;1.30;;;;;;;;;;4491858;28;20077;-57
2023/02/17 11:45:17;;;;;;;1.15;1.10;;;;;;;;;;4493682;28;20055;-56
2023/02/17 11:47:36;;;;;;;1.45;1.20;;;;;;;;;;4491879;28;20050;-56
2023/02/17 11:49:56;;;;;;;1.30;1.20;;;;;;;;;;4494597;28;20065;-56
2023/02/17 11:52:07;;;;;;;1.30;1.20;;;;;;;;;;4493193;28;20096;-56
2023/02/17 11:54:43;;;;;;;1.48;1.38;;;;;;;;;;4491119;28;20069;-57
2023/02/17 11:57:17;;;;;;;1.33;1.23;;;;;;;;;;4483933;28;20136;-56
2023/02/17 11:59:46;;;;;;;1.40;1.30;;;;;;;;;;4501143;28;20049;-56
2023/02/17 12:02:15;;;;;;;1.50;1.40;;;;;;;;;;4493737;28;20046;-55
2023/02/17 12:04:26;;;;;;;1.30;1.20;;;;;;;;;;4491484;28;20046;-56
2023/02/17 12:06:36;;;;;;;2.58;1.30;;;;;;;;;;4503583;28;20514;-57
2023/02/17 12:08:52;;;;;;;1.23;1.13;;;;;;;;;;4492108;28;20042;-57
2023/02/17 12:11:18;;;;;;;1.33;1.23;;;;;;;;;;4493497;28;20090;-55
2023/02/17 12:13:28;;;;;;;1.17;1.08;;;;;;;;;;4491777;28;20045;-56
2023/02/17 12:15:38;;;;;;;1.20;1.10;;;;;;;;;;4491394;28;20049;-56
2023/02/17 12:18:07;;;;;;;1.08;0.98;;;;;;;;;;4491664;28;20048;-55
2023/02/17 12:20:34;;;;;;;1.25;1.15;;;;;;;;;;4493005;28;20043;-58
2023/02/17 12:23:14;;;;;;;1.20;1.10;;;;;;;;;;4491568;28;20034;-57
2023/02/17 12:25:25;;;;;;;0.90;0.90;;;;;;;;;;4465404;28;20224;-56
2023/02/17 12:27:54;;;;;;;1.02;1.00;;;;;;;;;;4490057;28;20366;-56
2023/02/17 12:30:07;;;;;;;1.30;1.20;;;;;;;;;;4492795;28;20113;-56
2023/02/17 12:32:25;;;;;;;1.00;0.90;;;;;;;;;;4492225;28;20045;-56
2023/02/17 12:34:37;;;;;;;1.10;1.00;;;;;;;;;;4492359;28;20057;-57
2023/02/17 12:36:49;;;;;;;1.15;0.95;;;;;;;;;;4492248;28;20029;-56
2023/02/17 12:39:01;;;;;;;1.17;1.00;;;;;;;;;;4499126;28;20045;-58
2023/02/17 12:41:16;;;;;;;1.10;1.00;;;;;;;;;;4490220;28;20045;-61
2023/02/17 12:43:37;;;;;;;1.13;1.02;;;;;;;;;;4491903;28;20535;-57
2023/02/17 12:45:49;;;;;;;0.95;0.93;;;;;;;;;;4498995;28;20038;-55
2023/02/17 12:48:05;;;;;;;0.80;0.80;;;;;;;;;;4505694;28;20042;-56
2023/02/17 12:50:19;;;;;;;0.95;0.90;;;;;;;;;;4491180;28;20026;-56
2023/02/17 12:52:31;;;;;;;0.80;0.80;;;;;;;;;;4492938;28;20045;-56
2023/02/17 12:54:45;;;;;;;1.25;1.10;;;;;;;;;;4490325;28;20580;-55
2023/02/17 12:57:02;;;;;;;1.42;1.15;;;;;;;;;;4491971;28;20038;-56
2023/02/17 12:59:17;;;;;;;1.33;1.17;;;;;;;;;;4490986;28;20042;-56
2023/02/17 13:01:30;;;;;;;0.90;0.90;;;;;;;;;;4491798;28;20582;-56
2023/02/17 13:03:40;;;;;;;1.20;0.90;;;;;;;;;;4491891;28;20042;-56
2023/02/17 13:06:13;;;;;;;1.10;1.00;;;;;;;;;;4490365;28;20840;-57
2023/02/17 13:08:28;;;;;;;1.00;0.90;;;;;;;;;;4489528;28;20379;-57
2023/02/17 13:10:38;;;;;;;1.10;0.98;;;;;;;;;;4491503;28;20172;-56
2023/02/17 13:12:59;;;;;;;1.20;1.10;;;;;;;;;;4492983;28;20068;-56
2023/02/17 13:15:30;;;;;;;1.15;1.00;;;;;;;;;;4491792;28;20132;-57
2023/02/17 13:17:51;;;;;;;1.17;1.05;;;;;;;;;;4490882;28;20109;-58
2023/02/17 13:20:11;;;;;;;1.45;1.00;;;;;;;;;;4491372;28;20120;-57
2023/02/17 13:22:22;;;;;;;1.65;1.25;;;;;;;;;;4491706;28;20041;-57